sensor_id;sensor_type;location;lat;lon;timestamp;temperature;humidity
3713;DHT22;1872;51.406;6.856;2023-08-17T00:00:15;17.70;99.90
3713;DHT22;1872;51.406;6.856;2023-08-17T00:02:43;17.70;99.90
3713;DHT22;1872;51.406;6.856;2023-08-17T00:05:09;17.60;99.90
3713;DHT22;1872;51.406;6.856;2023-08-17T00:07:35;17.60;99.90
3713;DHT22;1872;51.406;6.856;2023-08-17T00:10:02;17.60;99.90
3713;DHT22;1872;51.406;6.856;2023-08-17T00:12:28;17.50;99.90
3713;DHT22;1872;51.406;6.856;2023-08-17T00:14:54;17.50;99.90
3713;DHT22;1872;51.406;6.856;2023-08-17T00:17:20;17.50;99.90
3713;DHT22;1872;51.406;6.856;2023-08-17T00:19:46;17.50;99.90
3713;DHT22;1872;51.406;6.856;2023-08-17T00:22:12;17.40;99.90
3713;DHT22;1872;51.406;6.856;2023-08-17T00:24:39;17.50;99.90
3713;DHT22;1872;51.406;6.856;2023-08-17T00:27:07;17.40;99.90
3713;DHT22;1872;51.406;6.856;2023-08-17T00:29:32;17.40;99.90
3713;DHT22;1872;51.406;6.856;2023-08-17T00:32:00;17.40;99.90
3713;DHT22;1872;51.406;6.856;2023-08-17T00:34:27;17.40;99.90
3713;DHT22;1872;51.406;6.856;2023-08-17T00:36:52;17.30;99.90
3713;DHT22;1872;51.406;6.856;2023-08-17T00:39:18;17.30;99.90
3713;DHT22;1872;51.406;6.856;2023-08-17T00:41:45;17.30;99.90
3713;DHT22;1872;51.406;6.856;2023-08-17T00:44:11;17.20;99.90
3713;DHT22;1872;51.406;6.856;2023-08-17T00:46:38;17.20;99.90
3713;DHT22;1872;51.406;6.856;2023-08-17T00:49:04;17.20;99.90
3713;DHT22;1872;51.406;6.856;2023-08-17T00:51:31;17.20;99.90
3713;DHT22;1872;51.406;6.856;2023-08-17T00:53:58;17.20;99.90
3713;DHT22;1872;51.406;6.856;2023-08-17T00:56:25;17.20;99.90
3713;DHT22;1872;51.406;6.856;2023-08-17T00:58:51;17.20;99.90
3713;DHT22;1872;51.406;6.856;2023-08-17T01:01:17;17.20;99.90
3713;DHT22;1872;51.406;6.856;2023-08-17T01:03:43;17.20;99.90
3713;DHT22;1872;51.406;6.856;2023-08-17T01:06:09;17.20;99.90
3713;DHT22;1872;51.406;6.856;2023-08-17T01:08:36;17.20;99.90
3713;DHT22;1872;51.406;6.856;2023-08-17T01:14:30;17.20;99.90
3713;DHT22;1872;51.406;6.856;2023-08-17T01:19:28;17.20;99.90
3713;DHT22;1872;51.406;6.856;2023-08-17T01:22:08;17.20;99.90
3713;DHT22;1872;51.406;6.856;2023-08-17T01:24:34;17.20;99.90
3713;DHT22;1872;51.406;6.856;2023-08-17T01:26:59;17.20;99.90
3713;DHT22;1872;51.406;6.856;2023-08-17T01:29:25;17.10;99.90
3713;DHT22;1872;51.406;6.856;2023-08-17T01:31:53;17.10;99.90
3713;DHT22;1872;51.406;6.856;2023-08-17T01:34:22;17.10;99.90
3713;DHT22;1872;51.406;6.856;2023-08-17T01:36:56;17.10;99.90
3713;DHT22;1872;51.406;6.856;2023-08-17T01:39:27;17.10;99.90
3713;DHT22;1872;51.406;6.856;2023-08-17T01:41:57;17.10;99.90
3713;DHT22;1872;51.406;6.856;2023-08-17T01:44:23;17.10;99.90
3713;DHT22;1872;51.406;6.856;2023-08-17T01:46:50;17.10;99.90
3713;DHT22;1872;51.406;6.856;2023-08-17T01:49:16;17.00;99.90
3713;DHT22;1872;51.406;6.856;2023-08-17T01:51:42;17.10;99.90
3713;DHT22;1872;51.406;6.856;2023-08-17T01:54:07;17.10;99.90
3713;DHT22;1872;51.406;6.856;2023-08-17T01:56:33;17.10;99.90
3713;DHT22;1872;51.406;6.856;2023-08-17T01:59:00;17.10;99.90
3713;DHT22;1872;51.406;6.856;2023-08-17T02:01:25;17.10;99.90
3713;DHT22;1872;51.406;6.856;2023-08-17T02:03:51;17.10;99.90
3713;DHT22;1872;51.406;6.856;2023-08-17T02:06:17;17.00;99.90
3713;DHT22;1872;51.406;6.856;2023-08-17T02:08:43;17.00;99.90
3713;DHT22;1872;51.406;6.856;2023-08-17T02:11:09;17.00;99.90
3713;DHT22;1872;51.406;6.856;2023-08-17T02:13:35;17.00;99.90
3713;DHT22;1872;51.406;6.856;2023-08-17T02:16:03;17.00;99.90
3713;DHT22;1872;51.406;6.856;2023-08-17T02:18:29;17.00;99.90
3713;DHT22;1872;51.406;6.856;2023-08-17T02:20:57;17.00;99.90
3713;DHT22;1872;51.406;6.856;2023-08-17T02:23:22;17.00;99.90
3713;DHT22;1872;51.406;6.856;2023-08-17T02:25:48;17.00;99.90
3713;DHT22;1872;51.406;6.856;2023-08-17T02:28:14;17.00;99.90
3713;DHT22;1872;51.406;6.856;2023-08-17T02:30:39;17.00;99.90
3713;DHT22;1872;51.406;6.856;2023-08-17T02:33:05;17.00;99.90
3713;DHT22;1872;51.406;6.856;2023-08-17T02:35:30;17.00;99.90
3713;DHT22;1872;51.406;6.856;2023-08-17T02:37:56;17.00;99.90
3713;DHT22;1872;51.406;6.856;2023-08-17T02:40:22;17.00;99.90
3713;DHT22;1872;51.406;6.856;2023-08-17T02:42:47;17.00;99.90
3713;DHT22;1872;51.406;6.856;2023-08-17T02:45:13;17.10;99.90
3713;DHT22;1872;51.406;6.856;2023-08-17T02:47:39;17.00;99.90
3713;DHT22;1872;51.406;6.856;2023-08-17T02:50:05;17.10;99.90
3713;DHT22;1872;51.406;6.856;2023-08-17T02:52:31;17.10;99.90
3713;DHT22;1872;51.406;6.856;2023-08-17T02:54:56;17.10;99.90
3713;DHT22;1872;51.406;6.856;2023-08-17T02:57:22;17.10;99.90
3713;DHT22;1872;51.406;6.856;2023-08-17T02:59:47;17.10;99.90
3713;DHT22;1872;51.406;6.856;2023-08-17T03:02:13;17.10;99.90
3713;DHT22;1872;51.406;6.856;2023-08-17T03:04:38;17.00;99.90
3713;DHT22;1872;51.406;6.856;2023-08-17T03:07:04;17.00;99.90
3713;DHT22;1872;51.406;6.856;2023-08-17T03:09:30;17.00;99.90
3713;DHT22;1872;51.406;6.856;2023-08-17T03:11:55;17.00;99.90
3713;DHT22;1872;51.406;6.856;2023-08-17T03:14:21;17.00;99.90
3713;DHT22;1872;51.406;6.856;2023-08-17T03:16:47;17.00;99.90
3713;DHT22;1872;51.406;6.856;2023-08-17T03:19:12;16.90;99.90
3713;DHT22;1872;51.406;6.856;2023-08-17T03:21:38;16.90;99.90
3713;DHT22;1872;51.406;6.856;2023-08-17T03:24:04;16.90;99.90
3713;DHT22;1872;51.406;6.856;2023-08-17T03:26:30;16.80;99.90
3713;DHT22;1872;51.406;6.856;2023-08-17T03:28:55;16.80;99.90
3713;DHT22;1872;51.406;6.856;2023-08-17T03:31:21;16.80;99.90
3713;DHT22;1872;51.406;6.856;2023-08-17T03:33:47;16.70;99.90
3713;DHT22;1872;51.406;6.856;2023-08-17T03:36:13;16.70;99.90
3713;DHT22;1872;51.406;6.856;2023-08-17T03:38:38;16.70;99.90
3713;DHT22;1872;51.406;6.856;2023-08-17T03:41:05;16.70;99.90
3713;DHT22;1872;51.406;6.856;2023-08-17T03:43:31;16.70;99.90
3713;DHT22;1872;51.406;6.856;2023-08-17T03:45:56;16.70;99.90
3713;DHT22;1872;51.406;6.856;2023-08-17T03:48:22;16.70;99.90
3713;DHT22;1872;51.406;6.856;2023-08-17T03:50:54;16.70;99.90
3713;DHT22;1872;51.406;6.856;2023-08-17T03:53:20;16.70;99.90
3713;DHT22;1872;51.406;6.856;2023-08-17T03:55:49;16.70;99.90
3713;DHT22;1872;51.406;6.856;2023-08-17T03:58:17;16.70;99.90
3713;DHT22;1872;51.406;6.856;2023-08-17T04:00:51;16.70;99.90
3713;DHT22;1872;51.406;6.856;2023-08-17T04:03:17;16.70;99.90
3713;DHT22;1872;51.406;6.856;2023-08-17T04:05:43;16.70;99.90
3713;DHT22;1872;51.406;6.856;2023-08-17T04:08:09;16.70;99.90
3713;DHT22;1872;51.406;6.856;2023-08-17T04:10:34;16.70;99.90
3713;DHT22;1872;51.406;6.856;2023-08-17T04:13:00;16.70;99.90
3713;DHT22;1872;51.406;6.856;2023-08-17T04:15:26;16.70;99.90
3713;DHT22;1872;51.406;6.856;2023-08-17T04:17:54;16.70;99.90
3713;DHT22;1872;51.406;6.856;2023-08-17T04:20:19;16.60;99.90
3713;DHT22;1872;51.406;6.856;2023-08-17T04:22:45;16.70;99.90
3713;DHT22;1872;51.406;6.856;2023-08-17T04:25:10;16.70;99.90
3713;DHT22;1872;51.406;6.856;2023-08-17T04:27:36;16.70;99.90
3713;DHT22;1872;51.406;6.856;2023-08-17T04:30:02;16.70;99.90
3713;DHT22;1872;51.406;6.856;2023-08-17T04:32:28;16.70;99.90
3713;DHT22;1872;51.406;6.856;2023-08-17T04:34:53;16.70;99.90
3713;DHT22;1872;51.406;6.856;2023-08-17T04:37:19;16.70;99.90
3713;DHT22;1872;51.406;6.856;2023-08-17T04:39:44;16.70;99.90
3713;DHT22;1872;51.406;6.856;2023-08-17T04:42:10;16.60;99.90
3713;DHT22;1872;51.406;6.856;2023-08-17T04:44:36;16.70;99.90
3713;DHT22;1872;51.406;6.856;2023-08-17T04:47:02;16.70;99.90
3713;DHT22;1872;51.406;6.856;2023-08-17T04:49:27;16.70;99.90
3713;DHT22;1872;51.406;6.856;2023-08-17T04:51:53;16.70;99.90
3713;DHT22;1872;51.406;6.856;2023-08-17T04:54:19;16.70;99.90
3713;DHT22;1872;51.406;6.856;2023-08-17T04:56:45;16.70;99.90
3713;DHT22;1872;51.406;6.856;2023-08-17T04:59:11;16.70;99.90
3713;DHT22;1872;51.406;6.856;2023-08-17T05:01:36;16.70;99.90
3713;DHT22;1872;51.406;6.856;2023-08-17T05:04:03;16.70;99.90
3713;DHT22;1872;51.406;6.856;2023-08-17T05:06:29;16.70;99.90
3713;DHT22;1872;51.406;6.856;2023-08-17T05:08:55;16.70;99.90
3713;DHT22;1872;51.406;6.856;2023-08-17T05:11:20;16.70;99.90
3713;DHT22;1872;51.406;6.856;2023-08-17T05:13:46;16.70;99.90
3713;DHT22;1872;51.406;6.856;2023-08-17T05:16:12;16.70;99.90
3713;DHT22;1872;51.406;6.856;2023-08-17T05:18:37;16.70;99.90
3713;DHT22;1872;51.406;6.856;2023-08-17T05:21:03;16.70;99.90
3713;DHT22;1872;51.406;6.856;2023-08-17T05:23:30;16.80;99.90
3713;DHT22;1872;51.406;6.856;2023-08-17T05:25:55;16.80;99.90
3713;DHT22;1872;51.406;6.856;2023-08-17T05:28:21;16.80;99.90
3713;DHT22;1872;51.406;6.856;2023-08-17T05:30:47;16.70;99.90
3713;DHT22;1872;51.406;6.856;2023-08-17T05:33:12;16.80;99.90
3713;DHT22;1872;51.406;6.856;2023-08-17T05:35:38;16.80;99.90
3713;DHT22;1872;51.406;6.856;2023-08-17T05:38:04;16.90;99.90
3713;DHT22;1872;51.406;6.856;2023-08-17T05:40:32;16.90;99.90
3713;DHT22;1872;51.406;6.856;2023-08-17T05:42:58;16.90;99.90
3713;DHT22;1872;51.406;6.856;2023-08-17T05:45:24;16.90;99.90
3713;DHT22;1872;51.406;6.856;2023-08-17T05:47:49;16.90;99.90
3713;DHT22;1872;51.406;6.856;2023-08-17T05:50:15;17.00;99.90
3713;DHT22;1872;51.406;6.856;2023-08-17T05:52:41;17.00;99.90
3713;DHT22;1872;51.406;6.856;2023-08-17T05:55:07;17.00;99.90
3713;DHT22;1872;51.406;6.856;2023-08-17T05:57:33;17.00;99.90
3713;DHT22;1872;51.406;6.856;2023-08-17T05:59:59;17.00;99.90
3713;DHT22;1872;51.406;6.856;2023-08-17T06:02:24;17.00;99.90
3713;DHT22;1872;51.406;6.856;2023-08-17T06:04:50;17.00;99.90
3713;DHT22;1872;51.406;6.856;2023-08-17T06:07:16;17.00;99.90
3713;DHT22;1872;51.406;6.856;2023-08-17T06:09:42;17.00;99.90
3713;DHT22;1872;51.406;6.856;2023-08-17T06:12:07;17.00;99.90
3713;DHT22;1872;51.406;6.856;2023-08-17T06:14:33;16.90;99.90
3713;DHT22;1872;51.406;6.856;2023-08-17T06:17:00;17.00;99.90
3713;DHT22;1872;51.406;6.856;2023-08-17T06:19:25;17.00;99.90
3713;DHT22;1872;51.406;6.856;2023-08-17T06:21:51;17.00;99.90
3713;DHT22;1872;51.406;6.856;2023-08-17T06:24:17;17.00;99.90
3713;DHT22;1872;51.406;6.856;2023-08-17T06:26:44;17.00;99.90
3713;DHT22;1872;51.406;6.856;2023-08-17T06:29:11;17.00;99.90
3713;DHT22;1872;51.406;6.856;2023-08-17T06:31:37;17.00;99.90
3713;DHT22;1872;51.406;6.856;2023-08-17T06:34:03;17.00;99.90
3713;DHT22;1872;51.406;6.856;2023-08-17T06:36:31;17.10;99.90
3713;DHT22;1872;51.406;6.856;2023-08-17T06:38:57;17.00;99.90
3713;DHT22;1872;51.406;6.856;2023-08-17T06:41:22;17.10;99.90
3713;DHT22;1872;51.406;6.856;2023-08-17T06:43:48;17.10;99.90
3713;DHT22;1872;51.406;6.856;2023-08-17T06:46:13;17.10;99.90
3713;DHT22;1872;51.406;6.856;2023-08-17T06:48:39;17.10;99.90
3713;DHT22;1872;51.406;6.856;2023-08-17T06:51:05;17.10;99.90
3713;DHT22;1872;51.406;6.856;2023-08-17T06:53:30;17.00;99.90
3713;DHT22;1872;51.406;6.856;2023-08-17T06:55:56;17.10;99.90
3713;DHT22;1872;51.406;6.856;2023-08-17T06:58:22;17.00;99.90
3713;DHT22;1872;51.406;6.856;2023-08-17T07:00:47;17.10;99.90
3713;DHT22;1872;51.406;6.856;2023-08-17T07:03:13;17.10;99.90
3713;DHT22;1872;51.406;6.856;2023-08-17T07:05:39;17.10;99.90
3713;DHT22;1872;51.406;6.856;2023-08-17T07:08:05;17.10;99.90
3713;DHT22;1872;51.406;6.856;2023-08-17T07:10:30;17.10;99.90
3713;DHT22;1872;51.406;6.856;2023-08-17T07:12:56;17.10;99.90
3713;DHT22;1872;51.406;6.856;2023-08-17T07:15:22;17.10;99.90
3713;DHT22;1872;51.406;6.856;2023-08-17T07:17:47;17.20;99.90
3713;DHT22;1872;51.406;6.856;2023-08-17T07:20:13;17.20;99.90
3713;DHT22;1872;51.406;6.856;2023-08-17T07:22:39;17.20;99.90
3713;DHT22;1872;51.406;6.856;2023-08-17T07:25:04;17.30;99.90
3713;DHT22;1872;51.406;6.856;2023-08-17T07:27:30;17.30;99.90
3713;DHT22;1872;51.406;6.856;2023-08-17T07:29:56;17.30;99.90
3713;DHT22;1872;51.406;6.856;2023-08-17T07:32:21;17.30;99.90
3713;DHT22;1872;51.406;6.856;2023-08-17T07:34:47;17.30;99.90
3713;DHT22;1872;51.406;6.856;2023-08-17T07:37:13;17.30;99.90
3713;DHT22;1872;51.406;6.856;2023-08-17T07:39:40;17.30;99.90
3713;DHT22;1872;51.406;6.856;2023-08-17T07:42:06;17.30;99.90
3713;DHT22;1872;51.406;6.856;2023-08-17T07:44:31;17.40;99.90
3713;DHT22;1872;51.406;6.856;2023-08-17T07:46:58;17.40;99.90
3713;DHT22;1872;51.406;6.856;2023-08-17T07:49:25;17.40;99.90
3713;DHT22;1872;51.406;6.856;2023-08-17T07:51:50;17.40;99.90
3713;DHT22;1872;51.406;6.856;2023-08-17T07:54:16;17.40;99.90
3713;DHT22;1872;51.406;6.856;2023-08-17T07:56:42;17.50;99.90
3713;DHT22;1872;51.406;6.856;2023-08-17T07:59:07;17.50;99.90
3713;DHT22;1872;51.406;6.856;2023-08-17T08:01:33;17.50;99.90
3713;DHT22;1872;51.406;6.856;2023-08-17T08:03:58;17.60;99.90
3713;DHT22;1872;51.406;6.856;2023-08-17T08:06:24;17.60;99.90
3713;DHT22;1872;51.406;6.856;2023-08-17T08:08:51;17.60;99.90
3713;DHT22;1872;51.406;6.856;2023-08-17T08:11:17;17.70;99.90
3713;DHT22;1872;51.406;6.856;2023-08-17T08:13:42;17.60;99.90
3713;DHT22;1872;51.406;6.856;2023-08-17T08:16:08;17.70;99.90
3713;DHT22;1872;51.406;6.856;2023-08-17T08:18:34;17.70;99.90
3713;DHT22;1872;51.406;6.856;2023-08-17T08:20:59;17.70;99.90
3713;DHT22;1872;51.406;6.856;2023-08-17T08:23:25;17.70;99.90
3713;DHT22;1872;51.406;6.856;2023-08-17T08:25:51;17.70;99.90
3713;DHT22;1872;51.406;6.856;2023-08-17T08:28:17;17.80;99.90
3713;DHT22;1872;51.406;6.856;2023-08-17T08:30:43;17.70;99.90
3713;DHT22;1872;51.406;6.856;2023-08-17T08:33:08;17.70;99.90
3713;DHT22;1872;51.406;6.856;2023-08-17T08:38:13;17.80;99.90
3713;DHT22;1872;51.406;6.856;2023-08-17T08:40:41;17.80;99.90
3713;DHT22;1872;51.406;6.856;2023-08-17T08:43:07;17.80;99.90
3713;DHT22;1872;51.406;6.856;2023-08-17T08:45:36;17.90;99.90
3713;DHT22;1872;51.406;6.856;2023-08-17T08:48:02;17.90;99.90
3713;DHT22;1872;51.406;6.856;2023-08-17T08:50:31;18.00;99.90
3713;DHT22;1872;51.406;6.856;2023-08-17T08:53:01;18.00;99.90
3713;DHT22;1872;51.406;6.856;2023-08-17T08:55:31;18.10;99.90
3713;DHT22;1872;51.406;6.856;2023-08-17T08:57:59;18.10;99.90
3713;DHT22;1872;51.406;6.856;2023-08-17T09:00:26;18.20;99.90
3713;DHT22;1872;51.406;6.856;2023-08-17T09:02:52;18.20;99.90
3713;DHT22;1872;51.406;6.856;2023-08-17T09:05:19;18.20;99.90
3713;DHT22;1872;51.406;6.856;2023-08-17T09:07:50;18.20;99.90
3713;DHT22;1872;51.406;6.856;2023-08-17T09:10:16;18.20;99.90
3713;DHT22;1872;51.406;6.856;2023-08-17T09:12:44;18.20;99.90
3713;DHT22;1872;51.406;6.856;2023-08-17T09:15:10;18.10;99.90
3713;DHT22;1872;51.406;6.856;2023-08-17T09:17:36;18.20;99.90
3713;DHT22;1872;51.406;6.856;2023-08-17T09:20:03;18.20;99.90
3713;DHT22;1872;51.406;6.856;2023-08-17T09:22:39;18.20;99.90
3713;DHT22;1872;51.406;6.856;2023-08-17T09:25:06;18.20;99.90
3713;DHT22;1872;51.406;6.856;2023-08-17T09:27:32;18.20;99.90
3713;DHT22;1872;51.406;6.856;2023-08-17T09:30:05;18.20;99.90
3713;DHT22;1872;51.406;6.856;2023-08-17T09:32:32;18.20;99.90
3713;DHT22;1872;51.406;6.856;2023-08-17T09:35:01;18.20;99.90
3713;DHT22;1872;51.406;6.856;2023-08-17T09:37:27;18.20;99.90
3713;DHT22;1872;51.406;6.856;2023-08-17T09:39:53;18.20;99.90
3713;DHT22;1872;51.406;6.856;2023-08-17T09:42:20;18.20;99.90
3713;DHT22;1872;51.406;6.856;2023-08-17T09:44:47;18.30;99.90
3713;DHT22;1872;51.406;6.856;2023-08-17T09:47:12;18.40;99.90
3713;DHT22;1872;51.406;6.856;2023-08-17T09:49:38;18.30;99.90
3713;DHT22;1872;51.406;6.856;2023-08-17T09:52:04;18.30;99.90
3713;DHT22;1872;51.406;6.856;2023-08-17T09:54:31;18.30;99.90
3713;DHT22;1872;51.406;6.856;2023-08-17T09:57:00;18.40;99.90
3713;DHT22;1872;51.406;6.856;2023-08-17T09:59:28;18.40;99.90
3713;DHT22;1872;51.406;6.856;2023-08-17T10:01:54;18.50;99.90
3713;DHT22;1872;51.406;6.856;2023-08-17T10:04:23;18.60;99.90
3713;DHT22;1872;51.406;6.856;2023-08-17T10:07:03;18.60;99.90
3713;DHT22;1872;51.406;6.856;2023-08-17T10:09:36;18.70;99.90
3713;DHT22;1872;51.406;6.856;2023-08-17T10:12:10;18.70;99.90
3713;DHT22;1872;51.406;6.856;2023-08-17T10:14:39;18.80;99.90
3713;DHT22;1872;51.406;6.856;2023-08-17T10:17:12;18.80;99.90
3713;DHT22;1872;51.406;6.856;2023-08-17T10:19:47;18.80;99.90
3713;DHT22;1872;51.406;6.856;2023-08-17T10:25:11;18.80;99.90
3713;DHT22;1872;51.406;6.856;2023-08-17T10:27:39;18.80;99.90
3713;DHT22;1872;51.406;6.856;2023-08-17T10:30:06;18.80;99.90
3713;DHT22;1872;51.406;6.856;2023-08-17T10:32:32;18.90;99.90
3713;DHT22;1872;51.406;6.856;2023-08-17T10:34:58;18.80;99.90
3713;DHT22;1872;51.406;6.856;2023-08-17T10:37:24;18.80;99.90
3713;DHT22;1872;51.406;6.856;2023-08-17T10:39:50;18.80;99.90
3713;DHT22;1872;51.406;6.856;2023-08-17T10:42:33;18.80;99.90
3713;DHT22;1872;51.406;6.856;2023-08-17T10:44:59;18.80;99.90
3713;DHT22;1872;51.406;6.856;2023-08-17T10:47:32;18.80;99.90
3713;DHT22;1872;51.406;6.856;2023-08-17T10:52:27;18.90;99.90
3713;DHT22;1872;51.406;6.856;2023-08-17T10:54:54;19.10;99.90
3713;DHT22;1872;51.406;6.856;2023-08-17T10:57:32;19.10;99.90
3713;DHT22;1872;51.406;6.856;2023-08-17T11:00:25;19.20;99.90
3713;DHT22;1872;51.406;6.856;2023-08-17T11:03:05;19.30;99.90
3713;DHT22;1872;51.406;6.856;2023-08-17T11:08:05;19.50;99.90
3713;DHT22;1872;51.406;6.856;2023-08-17T11:10:31;19.60;99.90
3713;DHT22;1872;51.406;6.856;2023-08-17T11:12:58;19.60;99.90
3713;DHT22;1872;51.406;6.856;2023-08-17T11:15:41;19.70;99.90
3713;DHT22;1872;51.406;6.856;2023-08-17T11:18:11;19.90;99.90
3713;DHT22;1872;51.406;6.856;2023-08-17T11:20:40;20.00;99.90
3713;DHT22;1872;51.406;6.856;2023-08-17T11:23:09;20.10;99.90
3713;DHT22;1872;51.406;6.856;2023-08-17T11:25:35;20.20;99.90
3713;DHT22;1872;51.406;6.856;2023-08-17T11:28:02;20.10;99.90
3713;DHT22;1872;51.406;6.856;2023-08-17T11:30:28;20.10;99.90
3713;DHT22;1872;51.406;6.856;2023-08-17T11:32:57;20.10;99.90
3713;DHT22;1872;51.406;6.856;2023-08-17T11:35:23;20.20;99.90
3713;DHT22;1872;51.406;6.856;2023-08-17T11:37:49;20.20;99.90
3713;DHT22;1872;51.406;6.856;2023-08-17T11:40:15;20.10;99.90
3713;DHT22;1872;51.406;6.856;2023-08-17T11:42:42;20.10;99.90
3713;DHT22;1872;51.406;6.856;2023-08-17T11:45:08;20.20;99.90
3713;DHT22;1872;51.406;6.856;2023-08-17T11:47:41;20.20;99.90
3713;DHT22;1872;51.406;6.856;2023-08-17T11:50:11;20.20;99.90
3713;DHT22;1872;51.406;6.856;2023-08-17T11:52:38;20.20;99.90
3713;DHT22;1872;51.406;6.856;2023-08-17T11:55:05;20.20;99.90
3713;DHT22;1872;51.406;6.856;2023-08-17T11:57:32;20.20;99.90
3713;DHT22;1872;51.406;6.856;2023-08-17T11:59:59;20.20;99.90
3713;DHT22;1872;51.406;6.856;2023-08-17T12:02:26;20.20;99.90
3713;DHT22;1872;51.406;6.856;2023-08-17T12:04:53;20.20;99.90
3713;DHT22;1872;51.406;6.856;2023-08-17T12:07:19;20.20;99.90
3713;DHT22;1872;51.406;6.856;2023-08-17T12:09:48;20.30;99.90
3713;DHT22;1872;51.406;6.856;2023-08-17T12:12:18;20.30;99.90
3713;DHT22;1872;51.406;6.856;2023-08-17T12:14:46;20.30;99.90
3713;DHT22;1872;51.406;6.856;2023-08-17T12:17:20;20.30;99.90
3713;DHT22;1872;51.406;6.856;2023-08-17T12:19:49;20.40;99.90
3713;DHT22;1872;51.406;6.856;2023-08-17T12:22:16;20.30;99.90
3713;DHT22;1872;51.406;6.856;2023-08-17T12:24:42;20.30;99.90
3713;DHT22;1872;51.406;6.856;2023-08-17T12:27:09;20.30;99.90
3713;DHT22;1872;51.406;6.856;2023-08-17T12:29:56;20.30;99.90
3713;DHT22;1872;51.406;6.856;2023-08-17T12:32:22;20.30;99.90
3713;DHT22;1872;51.406;6.856;2023-08-17T12:34:47;20.20;99.90
3713;DHT22;1872;51.406;6.856;2023-08-17T12:37:19;20.20;99.90
3713;DHT22;1872;51.406;6.856;2023-08-17T12:39:46;20.20;99.90
3713;DHT22;1872;51.406;6.856;2023-08-17T12:42:12;20.20;99.90
3713;DHT22;1872;51.406;6.856;2023-08-17T12:44:39;20.20;99.90
3713;DHT22;1872;51.406;6.856;2023-08-17T12:47:04;20.20;99.90
3713;DHT22;1872;51.406;6.856;2023-08-17T12:49:30;20.10;99.90
3713;DHT22;1872;51.406;6.856;2023-08-17T12:51:56;20.10;99.90
3713;DHT22;1872;51.406;6.856;2023-08-17T12:54:22;20.10;99.90
3713;DHT22;1872;51.406;6.856;2023-08-17T12:56:47;20.10;99.90
3713;DHT22;1872;51.406;6.856;2023-08-17T12:59:13;20.10;99.90
3713;DHT22;1872;51.406;6.856;2023-08-17T13:01:39;20.10;99.90
3713;DHT22;1872;51.406;6.856;2023-08-17T13:04:06;20.10;99.90
3713;DHT22;1872;51.406;6.856;2023-08-17T13:06:32;20.10;99.90
3713;DHT22;1872;51.406;6.856;2023-08-17T13:08:57;20.10;99.90
3713;DHT22;1872;51.406;6.856;2023-08-17T13:11:23;20.10;99.90
3713;DHT22;1872;51.406;6.856;2023-08-17T13:13:49;20.10;99.90
3713;DHT22;1872;51.406;6.856;2023-08-17T13:16:14;20.10;99.90
3713;DHT22;1872;51.406;6.856;2023-08-17T13:18:40;20.10;99.90
3713;DHT22;1872;51.406;6.856;2023-08-17T13:21:06;20.10;99.90
3713;DHT22;1872;51.406;6.856;2023-08-17T13:23:32;20.10;99.90
3713;DHT22;1872;51.406;6.856;2023-08-17T13:25:58;20.10;99.90
3713;DHT22;1872;51.406;6.856;2023-08-17T13:28:23;20.10;99.90
3713;DHT22;1872;51.406;6.856;2023-08-17T13:30:50;20.20;99.90
3713;DHT22;1872;51.406;6.856;2023-08-17T13:33:15;20.10;99.90
3713;DHT22;1872;51.406;6.856;2023-08-17T13:35:42;20.20;99.90
3713;DHT22;1872;51.406;6.856;2023-08-17T13:38:08;20.10;99.90
3713;DHT22;1872;51.406;6.856;2023-08-17T13:40:34;20.10;99.90
3713;DHT22;1872;51.406;6.856;2023-08-17T13:43:02;20.10;99.90
3713;DHT22;1872;51.406;6.856;2023-08-17T13:45:28;20.10;99.90
3713;DHT22;1872;51.406;6.856;2023-08-17T13:47:54;20.10;99.90
3713;DHT22;1872;51.406;6.856;2023-08-17T13:50:20;20.10;99.90
3713;DHT22;1872;51.406;6.856;2023-08-17T13:52:46;20.00;99.90
3713;DHT22;1872;51.406;6.856;2023-08-17T13:55:12;20.00;99.90
3713;DHT22;1872;51.406;6.856;2023-08-17T13:57:41;20.00;99.90
3713;DHT22;1872;51.406;6.856;2023-08-17T14:00:07;20.00;99.90
3713;DHT22;1872;51.406;6.856;2023-08-17T14:02:33;20.00;99.90
3713;DHT22;1872;51.406;6.856;2023-08-17T14:04:59;19.90;99.90
3713;DHT22;1872;51.406;6.856;2023-08-17T14:07:27;19.90;99.90
3713;DHT22;1872;51.406;6.856;2023-08-17T14:09:53;19.90;99.90
3713;DHT22;1872;51.406;6.856;2023-08-17T14:12:19;19.80;99.90
3713;DHT22;1872;51.406;6.856;2023-08-17T14:14:44;19.90;99.90
3713;DHT22;1872;51.406;6.856;2023-08-17T14:17:10;19.80;99.90
3713;DHT22;1872;51.406;6.856;2023-08-17T14:19:37;19.80;99.90
3713;DHT22;1872;51.406;6.856;2023-08-17T14:22:02;19.90;99.90
3713;DHT22;1872;51.406;6.856;2023-08-17T14:24:28;19.90;99.90
3713;DHT22;1872;51.406;6.856;2023-08-17T14:26:54;19.90;99.90
3713;DHT22;1872;51.406;6.856;2023-08-17T14:29:19;19.90;99.90
3713;DHT22;1872;51.406;6.856;2023-08-17T14:31:45;19.90;99.90
3713;DHT22;1872;51.406;6.856;2023-08-17T14:34:11;20.00;99.90
3713;DHT22;1872;51.406;6.856;2023-08-17T14:36:37;20.00;99.90
3713;DHT22;1872;51.406;6.856;2023-08-17T14:39:02;20.00;99.90
3713;DHT22;1872;51.406;6.856;2023-08-17T14:41:28;20.00;99.90
3713;DHT22;1872;51.406;6.856;2023-08-17T14:43:58;20.00;99.90
3713;DHT22;1872;51.406;6.856;2023-08-17T14:46:25;20.10;99.90
3713;DHT22;1872;51.406;6.856;2023-08-17T14:48:52;20.10;99.90
3713;DHT22;1872;51.406;6.856;2023-08-17T14:51:18;20.20;99.90
3713;DHT22;1872;51.406;6.856;2023-08-17T14:53:43;20.30;99.90
3713;DHT22;1872;51.406;6.856;2023-08-17T14:56:09;20.30;99.90
3713;DHT22;1872;51.406;6.856;2023-08-17T14:58:35;20.40;99.90
3713;DHT22;1872;51.406;6.856;2023-08-17T15:01:01;20.50;99.90
3713;DHT22;1872;51.406;6.856;2023-08-17T15:03:26;20.50;99.90
3713;DHT22;1872;51.406;6.856;2023-08-17T15:05:55;20.50;99.90
3713;DHT22;1872;51.406;6.856;2023-08-17T15:08:21;20.50;99.90
3713;DHT22;1872;51.406;6.856;2023-08-17T15:10:47;20.50;99.90
3713;DHT22;1872;51.406;6.856;2023-08-17T15:13:14;20.60;99.90
3713;DHT22;1872;51.406;6.856;2023-08-17T15:15:46;20.60;99.90
3713;DHT22;1872;51.406;6.856;2023-08-17T15:18:12;20.60;99.90
3713;DHT22;1872;51.406;6.856;2023-08-17T15:20:38;20.70;99.90
3713;DHT22;1872;51.406;6.856;2023-08-17T15:23:09;20.70;99.90
3713;DHT22;1872;51.406;6.856;2023-08-17T15:25:37;20.70;99.90
3713;DHT22;1872;51.406;6.856;2023-08-17T15:28:03;20.70;99.90
3713;DHT22;1872;51.406;6.856;2023-08-17T15:30:29;20.60;99.90
3713;DHT22;1872;51.406;6.856;2023-08-17T15:32:56;20.60;99.90
3713;DHT22;1872;51.406;6.856;2023-08-17T15:35:22;20.60;99.90
3713;DHT22;1872;51.406;6.856;2023-08-17T15:37:47;20.60;99.90
3713;DHT22;1872;51.406;6.856;2023-08-17T15:40:13;20.60;99.90
3713;DHT22;1872;51.406;6.856;2023-08-17T15:42:39;20.60;99.90
3713;DHT22;1872;51.406;6.856;2023-08-17T15:45:05;20.60;99.90
3713;DHT22;1872;51.406;6.856;2023-08-17T15:47:31;20.60;99.90
3713;DHT22;1872;51.406;6.856;2023-08-17T15:49:56;20.60;99.90
3713;DHT22;1872;51.406;6.856;2023-08-17T15:52:22;20.50;99.90
3713;DHT22;1872;51.406;6.856;2023-08-17T15:54:48;20.60;99.90
3713;DHT22;1872;51.406;6.856;2023-08-17T15:57:14;20.60;99.90
3713;DHT22;1872;51.406;6.856;2023-08-17T15:59:39;20.60;99.90
3713;DHT22;1872;51.406;6.856;2023-08-17T16:02:06;20.60;99.90
3713;DHT22;1872;51.406;6.856;2023-08-17T16:04:32;20.60;99.90
3713;DHT22;1872;51.406;6.856;2023-08-17T16:06:59;20.60;99.90
3713;DHT22;1872;51.406;6.856;2023-08-17T16:09:25;20.60;99.90
3713;DHT22;1872;51.406;6.856;2023-08-17T16:11:50;20.60;99.90
3713;DHT22;1872;51.406;6.856;2023-08-17T16:14:16;20.60;99.90